Time;durP1;ratioP1;P1;durP2;ratioP2;P2;SDS_P1;SDS_P2;PMS_P1;PMS_P2;Temp;Humidity;BMP_temperature;BMP_pressure;BME280_temperature;BME280_humidity;BME280_pressure;Samples;Min_cycle;Max_cycle;Signal;HPM_P1;HPM_P2
2023/01/30 00:00:06;;;;;;;10.30;6.00;;;;;;;-3.14;83.71;97681.39;110168;1249;69370;-70
2023/01/30 00:02:56;;;;;;;10.70;6.60;;;;;;;-3.15;83.49;97686.52;110039;1241;68533;-71
2023/01/30 00:05:26;;;;;;;10.60;6.60;;;;;;;-3.14;83.93;97681.55;110146;1241;59753;-71
2023/01/30 00:07:56;;;;;;;12.10;7.80;;;;;;;-3.12;84.00;97680.33;110226;1242;59700;-72
2023/01/30 00:10:25;;;;;;;10.50;6.70;;;;;;;-3.11;83.68;97680.83;110194;1242;71702;-71
2023/01/30 00:12:54;;;;;;;9.70;6.80;;;;;;;-3.13;83.39;97676.93;110235;1241;70048;-70
2023/01/30 00:15:24;;;;;;;9.20;6.70;;;;;;;-3.14;84.04;97682.39;110258;1241;68224;-72
2023/01/30 00:17:53;;;;;;;11.30;7.10;;;;;;;-3.15;83.82;97685.33;110190;1245;59718;-72
2023/01/30 00:20:23;;;;;;;9.90;6.50;;;;;;;-3.20;83.91;97687.09;110224;1245;59792;-72
2023/01/30 00:22:52;;;;;;;8.60;6.40;;;;;;;-3.19;84.35;97687.42;110207;1242;72257;-72
2023/01/30 00:25:30;;;;;;;9.30;5.50;;;;;;;-3.17;84.52;97691.83;110222;1242;69458;-72
2023/01/30 00:28:01;;;;;;;12.10;6.70;;;;;;;-3.18;84.70;97693.03;110168;1243;69520;-72
2023/01/30 00:30:31;;;;;;;;;;;;;;;-3.23;84.03;97690.88;110205;1242;59740;-72
2023/01/30 00:33:01;;;;;;;10.20;6.00;;;;;;;-3.23;84.66;97696.86;110220;1242;59751;-73
2023/01/30 00:35:31;;;;;;;12.00;6.20;;;;;;;-3.21;84.92;97696.81;110210;1242;70520;-72
2023/01/30 00:38:02;;;;;;;13.60;6.50;;;;;;;-3.22;84.53;97697.52;110135;1244;67825;-72
2023/01/30 00:40:32;;;;;;;;;;;;;;;-3.23;84.60;97695.66;110091;1245;69702;-71
2023/01/30 00:48:44;;;;;;;12.20;6.00;;;;;;;-3.19;84.79;97690.83;110213;1242;69652;-72
2023/01/30 00:51:14;;;;;;;10.80;6.70;;;;;;;-3.17;84.73;97685.86;110200;1240;68489;-72
2023/01/30 00:53:44;;;;;;;8.90;5.90;;;;;;;-3.17;84.93;97683.81;110144;1242;69294;-72
2023/01/30 00:56:14;;;;;;;10.60;6.80;;;;;;;-3.18;85.02;97685.70;110117;1244;59754;-72
2023/01/30 00:58:44;;;;;;;10.80;6.90;;;;;;;-3.19;85.05;97683.16;110179;1240;59819;-72
2023/01/30 01:01:15;;;;;;;11.70;7.10;;;;;;;-3.19;84.99;97681.80;110153;1242;70452;-71
2023/01/30 01:03:45;;;;;;;12.00;7.00;;;;;;;-3.19;85.08;97674.48;110191;1242;68311;-72
2023/01/30 01:06:16;;;;;;;12.80;7.90;;;;;;;-3.21;84.98;97674.83;110179;1242;69247;-71
2023/01/30 01:08:46;;;;;;;11.60;7.50;;;;;;;-3.23;84.46;97675.73;110106;1244;59703;-72
2023/01/30 01:11:23;;;;;;;13.00;7.00;;;;;;;-3.23;84.78;97673.15;110225;1241;60088;-72
2023/01/30 01:14:00;;;;;;;11.40;7.20;;;;;;;-3.24;84.83;97672.14;110199;1242;70614;-71
2023/01/30 01:16:32;;;;;;;13.40;7.80;;;;;;;-3.25;84.84;97675.39;110240;1242;69723;-72
2023/01/30 01:19:02;;;;;;;12.70;7.70;;;;;;;-3.26;84.40;97672.84;110170;1242;68536;-71
2023/01/30 01:21:32;;;;;;;12.90;8.80;;;;;;;-3.26;84.49;97669.27;110177;1241;59729;-71
2023/01/30 01:24:02;;;;;;;12.10;7.80;;;;;;;-3.26;84.78;97667.06;110192;1241;59670;-72
2023/01/30 01:26:34;;;;;;;15.30;8.40;;;;;;;-3.28;84.78;97662.65;110126;1241;71399;-72
2023/01/30 01:29:04;;;;;;;14.10;7.60;;;;;;;-3.31;84.21;97659.63;110202;1241;68416;-71
2023/01/30 01:31:35;;;;;;;11.00;7.30;;;;;;;-3.33;83.68;97656.08;110189;1242;69979;-71
2023/01/30 01:34:06;;;;;;;13.10;7.30;;;;;;;-3.33;84.42;97654.71;110204;1241;59725;-71
2023/01/30 01:36:37;;;;;;;11.70;7.80;;;;;;;-3.35;84.19;97654.55;110188;1242;59756;-71
2023/01/30 01:41:00;;;;;;;14.00;7.50;;;;;;;-3.36;83.37;97649.80;110185;1242;71286;-71
2023/01/30 01:42:16;;;;;;;;;;;;;;;-3.35;83.75;97651.67;110210;1241;69189;-71
2023/01/30 01:45:10;;;;;;;12.90;7.00;;;;;;;-3.38;84.04;97648.48;110182;1241;69345;-71
2023/01/30 01:47:58;;;;;;;10.90;6.90;;;;;;;-3.38;83.97;97649.34;110242;1242;59799;-72
2023/01/30 01:50:53;;;;;;;11.40;7.00;;;;;;;-3.41;83.42;97647.33;110104;1245;59734;-71
2023/01/30 01:53:29;;;;;;;12.30;7.00;;;;;;;-3.42;84.09;97645.29;110237;1242;70856;-72
2023/01/30 01:56:03;;;;;;;13.60;7.40;;;;;;;-3.42;83.50;97645.80;110296;1242;69240;-71
2023/01/30 01:58:46;;;;;;;11.80;7.20;;;;;;;-3.42;83.15;97644.43;110173;1245;69315;-71
2023/01/30 02:01:19;;;;;;;11.90;7.40;;;;;;;-3.42;82.77;97640.69;110234;1241;59682;-71
2023/01/30 02:03:55;;;;;;;9.50;6.40;;;;;;;-3.44;82.73;97640.70;110135;1246;59672;-71
2023/01/30 02:06:27;;;;;;;17.10;8.20;;;;;;;-3.43;82.53;97632.69;109948;1240;70669;-71
2023/01/30 02:09:03;;;;;;;11.60;7.30;;;;;;;-3.49;81.79;97629.20;110175;1242;69155;-71
2023/01/30 02:11:48;;;;;;;14.40;8.20;;;;;;;-3.52;81.74;97629.91;110181;1242;68521;-71
2023/01/30 02:14:20;;;;;;;10.80;6.50;;;;;;;-3.51;82.43;97627.70;110194;1242;59745;-71
2023/01/30 02:16:49;;;;;;;14.00;8.30;;;;;;;-3.49;82.72;97628.70;110131;1245;59672;-71
2023/01/30 02:19:33;;;;;;;13.20;7.50;;;;;;;-3.52;81.81;97625.98;110167;1240;71375;-71
2023/01/30 02:22:16;;;;;;;12.50;7.60;;;;;;;-3.54;81.37;97626.53;110184;1241;69107;-71
2023/01/30 02:25:11;;;;;;;11.90;7.20;;;;;;;-3.56;80.90;97626.06;110184;1240;69138;-71
2023/01/30 02:28:00;;;;;;;11.10;6.60;;;;;;;-3.53;81.46;97629.42;110150;1243;59753;-71
2023/01/30 02:30:41;;;;;;;11.30;7.20;;;;;;;-3.55;80.29;97626.72;110217;1240;59685;-71
2023/01/30 02:33:15;;;;;;;12.20;7.50;;;;;;;-3.52;80.81;97629.41;110177;1241;71310;-72
2023/01/30 02:36:09;;;;;;;16.20;8.30;;;;;;;-3.55;80.35;97628.59;110178;1241;68862;-71
2023/01/30 02:39:00;;;;;;;11.80;7.80;;;;;;;-3.55;80.26;97626.38;110185;1241;69268;-71
2023/01/30 02:42:03;;;;;;;12.70;7.90;;;;;;;-3.53;81.42;97632.48;110185;1241;59683;-71
2023/01/30 02:45:06;;;;;;;14.10;8.20;;;;;;;-3.53;80.41;97629.27;110136;1242;59739;-71
2023/01/30 02:47:59;;;;;;;12.30;8.70;;;;;;;-3.54;81.41;97629.95;110134;1242;71230;-71
2023/01/30 02:50:31;;;;;;;13.50;8.10;;;;;;;-3.54;81.43;97622.28;110076;1242;69706;-71
2023/01/30 02:53:05;;;;;;;13.00;7.80;;;;;;;-3.56;80.50;97621.96;110114;1245;69307;-71
2023/01/30 02:55:41;;;;;;;14.20;8.40;;;;;;;-3.57;81.19;97615.15;110165;1242;59692;-71
2023/01/30 02:58:13;;;;;;;12.90;8.00;;;;;;;-3.57;80.45;97609.36;110174;1240;59734;-72
2023/01/30 03:00:49;;;;;;;15.80;8.30;;;;;;;-3.58;80.22;97602.73;110102;1244;71383;-72
2023/01/30 03:03:48;;;;;;;16.10;8.70;;;;;;;-3.60;80.42;97603.95;110157;1243;69355;-71
2023/01/30 03:06:37;;;;;;;17.20;8.50;;;;;;;-3.63;80.06;97598.20;109755;1241;69098;-71
2023/01/30 03:09:35;;;;;;;13.60;8.30;;;;;;;-3.65;79.95;97594.33;110138;1241;59703;-71
2023/01/30 03:12:27;;;;;;;15.80;8.40;;;;;;;-3.65;80.32;97591.59;110119;1241;59733;-71
2023/01/30 03:15:54;;;;;;;15.10;8.20;;;;;;;-3.71;79.51;97593.03;110212;1242;71480;-71
2023/01/30 03:18:27;;;;;;;13.10;8.10;;;;;;;-3.67;80.77;97588.89;109471;1251;69319;-71
2023/01/30 03:21:04;;;;;;;16.30;8.10;;;;;;;-3.65;81.49;97589.04;110183;1242;68292;-71
2023/01/30 03:23:35;;;;;;;14.30;8.80;;;;;;;-3.63;82.39;97587.48;110187;1242;59733;-72
2023/01/30 03:26:10;;;;;;;15.60;9.40;;;;;;;-3.64;80.66;97580.85;110137;1241;59724;-72
2023/01/30 03:28:44;;;;;;;16.20;9.30;;;;;;;-3.66;80.57;97580.52;110166;1245;70836;-71
2023/01/30 03:31:14;;;;;;;16.80;9.30;;;;;;;-3.69;80.28;97578.86;110177;1241;69295;-73
2023/01/30 03:33:45;;;;;;;12.50;7.80;;;;;;;-3.68;80.70;97579.20;110139;1241;69150;-71
2023/01/30 03:36:15;;;;;;;17.80;9.30;;;;;;;-3.69;81.30;97578.02;110087;1245;59696;-71
2023/01/30 03:38:47;;;;;;;17.90;9.20;;;;;;;-3.70;81.40;97579.73;110098;1245;59736;-71
2023/01/30 03:41:17;;;;;;;16.40;9.40;;;;;;;-3.73;81.25;97579.94;110162;1244;70787;-71
2023/01/30 03:43:47;;;;;;;16.30;9.70;;;;;;;-3.73;81.71;97576.54;110087;1245;68433;-71
2023/01/30 03:46:17;;;;;;;17.00;9.70;;;;;;;-3.74;81.39;97571.10;109805;1241;68720;-71
2023/01/30 03:48:47;;;;;;;;;;;;;;;-3.78;81.76;97566.55;110123;1245;59699;-71
2023/01/30 03:51:18;;;;;;;17.20;9.70;;;;;;;-3.81;82.11;97564.20;110138;1245;59667;-71
2023/01/30 03:53:48;;;;;;;16.30;8.80;;;;;;;-3.83;82.40;97566.80;110151;1245;71330;-71
2023/01/30 03:56:18;;;;;;;16.90;8.60;;;;;;;-3.81;82.66;97564.05;110150;1241;69277;-71
2023/01/30 03:58:48;;;;;;;15.00;8.70;;;;;;;-3.80;83.13;97558.08;110093;1245;68430;-71
2023/01/30 04:01:24;;;;;;;16.60;9.30;;;;;;;-3.78;83.16;97557.36;110112;1246;59746;-72
2023/01/30 04:03:54;;;;;;;13.20;8.40;;;;;;;-3.76;83.32;97556.82;110100;1242;59749;-71
2023/01/30 04:06:25;;;;;;;15.80;8.00;;;;;;;-3.73;83.41;97559.69;110105;1244;70754;-71
2023/01/30 04:08:56;;;;;;;15.30;8.30;;;;;;;-3.71;83.62;97557.44;110171;1244;69232;-71
2023/01/30 04:11:43;;;;;;;17.20;8.60;;;;;;;-3.70;83.55;97552.30;110108;1241;69176;-71
2023/01/30 04:14:12;;;;;;;12.80;8.00;;;;;;;-3.73;83.05;97550.48;110127;1241;59771;-71
2023/01/30 04:17:02;;;;;;;17.20;9.00;;;;;;;-3.73;82.87;97549.45;110119;1245;59666;-71
2023/01/30 04:19:52;;;;;;;16.70;9.30;;;;;;;-3.74;82.92;97543.00;110080;1241;71784;-71
2023/01/30 04:22:22;;;;;;;13.70;7.70;;;;;;;-3.73;82.55;97543.84;110088;1245;69234;-71
2023/01/30 04:24:52;;;;;;;17.00;9.20;;;;;;;-3.72;83.21;97543.31;110105;1245;68829;-71
2023/01/30 04:27:22;;;;;;;15.60;8.50;;;;;;;-3.71;83.39;97541.23;110131;1247;60092;-72
2023/01/30 04:30:08;;;;;;;10.60;6.60;;;;;;;-3.71;83.25;97538.34;110172;1246;60095;-71
2023/01/30 04:32:38;;;;;;;15.10;8.20;;;;;;;-3.72;83.09;97539.55;110117;1245;71392;-71
2023/01/30 04:35:07;;;;;;;15.90;9.10;;;;;;;-3.72;83.14;97538.89;110139;1245;69250;-71
2023/01/30 04:37:37;;;;;;;14.10;10.40;;;;;;;-3.77;82.79;97536.05;110134;1245;69297;-72
2023/01/30 04:40:07;;;;;;;14.10;8.00;;;;;;;-3.77;82.67;97530.27;109878;1245;59747;-71
2023/01/30 04:42:37;;;;;;;13.90;8.50;;;;;;;-3.76;82.58;97535.01;110148;1247;59737;-71
2023/01/30 04:45:27;;;;;;;15.70;9.00;;;;;;;-3.73;82.73;97535.84;110145;1241;71630;-72
2023/01/30 04:47:58;;;;;;;13.60;7.60;;;;;;;-3.73;83.06;97536.86;109937;1244;68411;-72
2023/01/30 04:50:28;;;;;;;12.70;8.70;;;;;;;-3.73;83.16;97533.61;110224;1245;69157;-72
2023/01/30 04:52:57;;;;;;;14.30;8.50;;;;;;;-3.73;83.34;97529.36;109962;1244;59707;-72
2023/01/30 04:55:27;;;;;;;13.50;8.40;;;;;;;-3.71;82.47;97528.11;110109;1245;59727;-72
2023/01/30 04:57:58;;;;;;;16.30;8.80;;;;;;;-3.73;80.60;97529.02;110137;1245;71621;-72
2023/01/30 05:00:27;;;;;;;16.80;8.00;;;;;;;-3.72;81.41;97529.17;110089;1244;69179;-71
2023/01/30 05:02:59;;;;;;;12.90;8.60;;;;;;;-3.71;82.00;97527.80;110083;1245;70431;-72
2023/01/30 05:05:29;;;;;;;14.30;8.00;;;;;;;-3.72;81.99;97527.80;110119;1244;59685;-72
2023/01/30 05:07:59;;;;;;;13.30;7.60;;;;;;;-3.69;82.34;97524.36;110115;1244;59707;-71
2023/01/30 05:10:28;;;;;;;13.50;7.90;;;;;;;-3.68;82.14;97524.17;110111;1244;71365;-71
2023/01/30 05:13:04;;;;;;;15.30;8.00;;;;;;;-3.68;81.71;97526.05;110142;1244;69241;-72
2023/01/30 05:15:34;;;;;;;15.60;8.50;;;;;;;-3.66;82.00;97524.14;110060;1245;69668;-71
2023/01/30 05:18:02;;;;;;;12.90;9.00;;;;;;;-3.69;81.49;97526.73;110138;1245;60117;-72
2023/01/30 05:20:31;;;;;;;13.80;7.70;;;;;;;-3.72;80.65;97525.77;110117;1245;59636;-72
2023/01/30 05:23:01;;;;;;;15.50;9.20;;;;;;;-3.70;80.76;97523.52;110109;1245;71989;-72
2023/01/30 05:25:30;;;;;;;15.30;8.80;;;;;;;-3.69;82.34;97521.63;110121;1245;69402;-71
2023/01/30 05:27:59;;;;;;;12.10;7.10;;;;;;;-3.66;82.07;97522.95;110085;1245;68535;-71
2023/01/30 05:30:29;;;;;;;11.70;7.40;;;;;;;-3.64;81.56;97522.42;110095;1244;59690;-72
2023/01/30 05:32:58;;;;;;;12.40;7.40;;;;;;;-3.63;81.15;97518.81;110143;1245;59705;-71
2023/01/30 05:35:28;;;;;;;15.40;8.30;;;;;;;-3.62;81.22;97520.49;110138;1245;70673;-71
2023/01/30 05:37:57;;;;;;;12.80;7.80;;;;;;;-3.62;81.56;97519.81;110139;1245;69358;-71
2023/01/30 05:40:27;;;;;;;14.30;9.00;;;;;;;-3.61;82.04;97518.95;110129;1244;69871;-71
2023/01/30 05:42:56;;;;;;;13.60;7.80;;;;;;;-3.61;83.93;97517.94;110127;1244;59678;-72
2023/01/30 05:45:25;;;;;;;12.70;8.30;;;;;;;-3.61;84.03;97517.59;110098;1244;59699;-72
2023/01/30 05:47:54;;;;;;;12.20;8.10;;;;;;;-3.62;84.36;97521.02;110244;1242;71296;-71
2023/01/30 05:50:30;;;;;;;17.50;9.30;;;;;;;-3.62;84.71;97515.91;110203;1241;69867;-71
2023/01/30 05:52:59;;;;;;;14.90;8.40;;;;;;;-3.63;84.61;97515.59;110208;1242;68355;-71
2023/01/30 05:55:28;;;;;;;15.50;8.40;;;;;;;-3.62;84.67;97511.30;110160;1242;59689;-72
2023/01/30 05:57:57;;;;;;;17.10;8.90;;;;;;;-3.64;86.34;97512.36;110210;1242;59647;-71
2023/01/30 06:00:27;;;;;;;;;;;;;;;-3.64;86.42;97515.59;110236;1243;70754;-71
2023/01/30 06:02:56;;;;;;;15.10;9.00;;;;;;;-3.65;86.38;97514.42;110209;1246;69837;-71
2023/01/30 06:05:26;;;;;;;20.80;12.90;;;;;;;-3.65;86.97;97514.08;110157;1244;69900;-72
2023/01/30 06:07:56;;;;;;;;;;;;;;;-3.69;87.31;97509.55;110212;1242;59805;-72
2023/01/30 06:10:25;;;;;;;14.30;9.40;;;;;;;-3.69;86.70;97508.86;110210;1242;59677;-71
2023/01/30 06:12:54;;;;;;;17.50;9.90;;;;;;;-3.69;86.17;97506.82;110260;1242;71965;-71
2023/01/30 06:15:23;;;;;;;22.10;12.70;;;;;;;-3.69;85.77;97504.09;110231;1242;69103;-71
2023/01/30 06:17:52;;;;;;;25.90;16.80;;;;;;;-3.68;85.86;97506.28;110196;1242;69882;-72
2023/01/30 06:20:21;;;;;;;30.80;17.20;;;;;;;-3.69;86.06;97505.97;110176;1243;59686;-71
2023/01/30 06:22:50;;;;;;;22.90;12.90;;;;;;;-3.70;86.52;97508.88;110129;1246;59725;-71
2023/01/30 06:25:20;;;;;;;25.00;12.70;;;;;;;-3.70;86.84;97505.63;110169;1242;70417;-71
2023/01/30 06:27:49;;;;;;;18.80;10.40;;;;;;;-3.69;88.02;97503.06;110231;1243;69257;-71
2023/01/30 06:30:18;;;;;;;21.20;11.30;;;;;;;-3.68;88.10;97500.33;110263;1242;69257;-71
2023/01/30 06:32:51;;;;;;;19.20;11.10;;;;;;;-3.66;88.12;97501.98;110223;1250;59737;-73
2023/01/30 06:35:19;;;;;;;18.30;10.60;;;;;;;-3.64;88.57;97501.80;110220;1242;59758;-72
2023/01/30 06:37:49;;;;;;;23.60;12.50;;;;;;;-3.61;89.17;97507.70;110238;1242;71169;-72
2023/01/30 06:40:18;;;;;;;20.80;10.90;;;;;;;-3.60;89.01;97509.40;110236;1240;68173;-72
2023/01/30 06:42:48;;;;;;;22.10;12.60;;;;;;;-3.56;88.37;97509.36;110248;1245;69883;-73
2023/01/30 06:45:18;;;;;;;20.80;12.30;;;;;;;-3.58;87.50;97511.26;110247;1245;59755;-72
2023/01/30 06:47:53;;;;;;;18.80;10.90;;;;;;;-3.55;87.46;97515.98;110262;1248;59727;-71
2023/01/30 06:50:25;;;;;;;23.50;12.90;;;;;;;-3.51;87.89;97509.95;110249;1243;71972;-71
2023/01/30 06:52:55;;;;;;;26.00;13.40;;;;;;;-3.48;88.19;97503.77;110209;1242;69825;-72
2023/01/30 06:55:27;;;;;;;32.00;16.00;;;;;;;-3.45;87.92;97500.66;110098;1245;68820;-73
2023/01/30 06:58:13;;;;;;;28.80;15.90;;;;;;;-3.44;87.23;97498.77;110130;1246;59732;-71
2023/01/30 07:00:43;;;;;;;30.40;15.10;;;;;;;-3.43;86.22;97498.42;110224;1242;59631;-72
2023/01/30 07:03:16;;;;;;;26.50;15.10;;;;;;;-3.40;86.09;97497.00;110179;1242;70418;-71
2023/01/30 07:05:46;;;;;;;26.70;15.00;;;;;;;-3.38;85.23;97499.02;110183;1244;69827;-71
2023/01/30 07:08:16;;;;;;;30.50;15.30;;;;;;;-3.37;85.51;97497.98;110184;1241;69271;-70
2023/01/30 07:10:45;;;;;;;32.90;18.00;;;;;;;-3.33;85.18;97496.89;110228;1242;59720;-71
2023/01/30 07:13:14;;;;;;;33.50;19.10;;;;;;;-3.32;84.85;97496.02;110226;1242;59626;-73
2023/01/30 07:15:43;;;;;;;23.90;14.70;;;;;;;-3.29;84.71;97495.11;110272;1242;71102;-73
2023/01/30 07:18:12;;;;;;;25.10;14.30;;;;;;;-3.26;84.33;97498.64;110362;1249;69712;-72
2023/01/30 07:20:45;;;;;;;28.50;14.40;;;;;;;-3.23;83.32;97499.12;110215;1242;69344;-74
2023/01/30 07:23:13;;;;;;;26.50;13.60;;;;;;;-3.21;82.85;97494.46;110207;1242;59725;-73
2023/01/30 07:25:43;;;;;;;24.10;13.70;;;;;;;-3.17;82.47;97497.13;110208;1242;59637;-73
2023/01/30 07:28:11;;;;;;;24.40;13.30;;;;;;;-3.11;82.21;97494.48;110233;1242;71950;-73
2023/01/30 07:30:40;;;;;;;32.10;17.10;;;;;;;-3.04;82.56;97496.91;110202;1242;69739;-73
2023/01/30 07:33:09;;;;;;;35.80;18.60;;;;;;;-3.00;82.71;97496.84;110224;1247;68129;-74
2023/01/30 07:35:38;;;;;;;33.60;19.10;;;;;;;-3.00;82.67;97497.02;110248;1242;59695;-72
2023/01/30 07:38:07;;;;;;;32.00;18.90;;;;;;;-3.00;82.74;97496.84;110225;1243;59609;-72
2023/01/30 07:40:36;;;;;;;31.70;18.70;;;;;;;-3.02;82.47;97496.54;110394;1242;71323;-73
2023/01/30 07:43:12;;;;;;;28.40;15.70;;;;;;;-3.00;81.89;97492.75;110297;1242;70047;-73
2023/01/30 07:45:45;;;;;;;26.50;14.70;;;;;;;-2.94;81.65;97491.12;110447;1242;69991;-71
2023/01/30 07:48:17;;;;;;;27.50;16.40;;;;;;;-2.84;82.25;97498.44;110280;1243;59746;-72
2023/01/30 07:50:46;;;;;;;23.00;13.50;;;;;;;-2.81;81.76;97497.00;110255;1242;59685;-71
2023/01/30 07:53:17;;;;;;;23.40;13.10;;;;;;;-2.80;81.43;97494.45;110262;1241;71958;-72
2023/01/30 07:55:46;;;;;;;23.40;13.10;;;;;;;-2.80;80.24;97499.89;110268;1247;70269;-74
2023/01/30 07:58:15;;;;;;;19.70;11.20;;;;;;;-2.74;79.67;97497.91;110283;1241;68330;-72
2023/01/30 08:00:44;;;;;;;19.70;10.50;;;;;;;-2.68;78.60;97493.00;110265;1241;59742;-73
2023/01/30 08:03:16;;;;;;;18.20;11.10;;;;;;;-2.66;77.53;97488.70;110254;1242;59743;-71
2023/01/30 08:05:45;;;;;;;22.30;12.00;;;;;;;-2.58;77.25;97485.83;110204;1242;71685;-72
2023/01/30 08:08:15;;;;;;;19.40;10.80;;;;;;;-2.51;77.40;97486.23;110262;1240;68464;-72
2023/01/30 08:10:43;;;;;;;22.70;12.00;;;;;;;-2.47;76.85;97483.06;110242;1242;68520;-72
2023/01/30 08:13:12;;;;;;;23.10;11.90;;;;;;;-2.44;77.58;97477.02;110254;1240;59744;-71
2023/01/30 08:15:41;;;;;;;21.90;13.90;;;;;;;-2.44;78.42;97479.75;110257;1242;59694;-72
2023/01/30 08:18:10;;;;;;;21.70;12.30;;;;;;;-2.40;78.85;97480.54;110176;1243;70627;-72
2023/01/30 08:20:41;;;;;;;22.50;13.40;;;;;;;-2.33;78.43;97472.36;110209;1242;69064;-72
2023/01/30 08:23:10;;;;;;;19.50;12.80;;;;;;;-2.24;78.40;97470.13;110213;1242;69860;-72
2023/01/30 08:25:39;;;;;;;20.00;12.50;;;;;;;-2.19;77.39;97469.52;110169;1242;59703;-72
2023/01/30 08:28:07;;;;;;;20.90;12.80;;;;;;;-2.11;78.14;97466.59;110191;1242;59739;-72
2023/01/30 08:30:36;;;;;;;22.50;13.70;;;;;;;-2.05;77.99;97468.34;110237;1242;71359;-72
2023/01/30 08:33:06;;;;;;;22.60;13.90;;;;;;;-2.05;78.10;97466.81;110175;1242;70248;-72
2023/01/30 08:35:35;;;;;;;23.90;14.00;;;;;;;-2.07;78.00;97463.11;110206;1242;68684;-72
2023/01/30 08:38:06;;;;;;;19.70;11.70;;;;;;;-2.06;77.94;97462.38;110185;1241;59808;-72
2023/01/30 08:40:35;;;;;;;16.50;9.40;;;;;;;-2.09;74.16;97457.34;110229;1242;59604;-72
2023/01/30 08:43:05;;;;;;;19.30;11.60;;;;;;;-2.04;72.06;97453.64;110214;1240;71985;-72
2023/01/30 08:45:35;;;;;;;15.90;9.80;;;;;;;-1.93;75.26;97456.31;110229;1242;69852;-72
2023/01/30 08:48:06;;;;;;;19.40;11.20;;;;;;;-1.89;75.56;97457.23;110210;1242;69682;-72
2023/01/30 08:50:35;;;;;;;20.20;13.30;;;;;;;-1.90;74.91;97453.31;110180;1242;59667;-72
2023/01/30 08:53:05;;;;;;;21.20;11.90;;;;;;;-1.91;74.89;97451.80;110186;1242;59640;-72
2023/01/30 08:55:34;;;;;;;;;;;;;;;-1.90;74.81;97447.02;110228;1242;71175;-69
2023/01/30 08:58:03;;;;;;;23.50;12.80;;;;;;;-1.91;74.87;97444.48;110235;1242;68296;-69
2023/01/30 09:00:32;;;;;;;20.70;12.00;;;;;;;-1.93;73.88;97438.38;110207;1242;69842;-70
2023/01/30 09:03:01;;;;;;;19.10;11.10;;;;;;;-1.93;74.44;97436.66;110215;1240;59686;-69
2023/01/30 09:05:30;;;;;;;18.50;10.40;;;;;;;-1.89;74.13;97433.32;110208;1241;59702;-71
2023/01/30 09:07:59;;;;;;;15.80;10.20;;;;;;;-1.87;73.33;97425.92;110157;1241;71386;-72
2023/01/30 09:10:29;;;;;;;17.90;10.90;;;;;;;-1.85;72.91;97422.96;110170;1244;69279;-71
2023/01/30 09:13:00;;;;;;;22.00;12.30;;;;;;;-1.85;73.21;97417.67;110189;1242;69863;-72
2023/01/30 09:15:29;;;;;;;20.70;13.40;;;;;;;-1.87;72.97;97419.25;110214;1242;59764;-72
2023/01/30 09:17:58;;;;;;;18.30;11.00;;;;;;;-1.87;73.18;97411.06;110184;1240;59730;-71
2023/01/30 09:20:27;;;;;;;22.20;13.20;;;;;;;-1.87;72.98;97406.80;110138;1242;71966;-71
2023/01/30 09:22:57;;;;;;;19.20;11.90;;;;;;;-1.85;73.06;97403.68;110159;1242;69422;-71
2023/01/30 09:25:26;;;;;;;19.50;11.30;;;;;;;-1.86;72.49;97398.56;110171;1242;69179;-71
2023/01/30 09:27:55;;;;;;;19.90;11.40;;;;;;;-1.85;72.84;97391.20;110198;1242;59697;-71
2023/01/30 09:30:24;;;;;;;19.00;10.70;;;;;;;-1.82;72.59;97386.34;110177;1242;59702;-71
2023/01/30 09:32:53;;;;;;;19.50;10.60;;;;;;;-1.77;73.26;97382.97;110175;1242;71698;-71
2023/01/30 09:35:22;;;;;;;18.00;10.70;;;;;;;-1.72;72.37;97378.08;110203;1243;67495;-72
2023/01/30 09:37:53;;;;;;;17.60;11.10;;;;;;;-1.68;72.30;97377.13;110144;1242;69937;-72
2023/01/30 09:40:28;;;;;;;15.80;9.60;;;;;;;-1.68;71.32;97375.05;110171;1242;59679;-71
2023/01/30 09:43:13;;;;;;;14.50;8.30;;;;;;;-1.69;71.24;97374.41;110159;1243;59627;-71
2023/01/30 09:46:09;;;;;;;12.90;8.00;;;;;;;-1.71;70.83;97367.46;110253;1241;72007;-71
2023/01/30 09:49:14;;;;;;;16.60;9.30;;;;;;;-1.62;71.54;97367.91;110207;1242;69235;-72
2023/01/30 09:51:55;;;;;;;18.70;10.50;;;;;;;-1.58;69.49;97359.42;110202;1245;69543;-71
2023/01/30 09:54:34;;;;;;;18.80;10.20;;;;;;;-1.58;70.10;97355.32;110205;1242;59689;-72
2023/01/30 09:57:15;;;;;;;15.50;8.50;;;;;;;-1.52;70.29;97351.09;110242;1241;59667;-72
2023/01/30 10:00:01;;;;;;;14.50;8.00;;;;;;;-1.55;70.13;97342.95;110206;1242;71883;-73
2023/01/30 10:02:50;;;;;;;16.40;8.90;;;;;;;-1.48;70.23;97334.40;110159;1240;69645;-73
2023/01/30 10:05:20;;;;;;;;;;;;;;;-1.33;70.80;97328.04;110192;1240;68338;-72
2023/01/30 10:08:01;;;;;;;15.30;9.70;;;;;;;-1.25;69.61;97326.79;110205;1241;59715;-74
2023/01/30 10:10:48;;;;;;;20.60;12.80;;;;;;;-1.21;69.17;97322.73;110354;1242;59676;-73
2023/01/30 10:13:54;;;;;;;17.50;10.60;;;;;;;-1.23;67.93;97308.42;110369;1242;71975;-74
2023/01/30 10:17:06;;;;;;;12.60;8.70;;;;;;;-1.26;67.12;97300.14;110433;1242;70285;-73
2023/01/30 10:20:05;;;;;;;16.80;9.10;;;;;;;-1.24;67.81;97283.66;109537;1251;69176;-73
2023/01/30 10:23:13;;;;;;;14.40;9.60;;;;;;;-1.18;68.59;97274.77;110311;1242;59744;-74
2023/01/30 10:25:48;;;;;;;15.20;9.90;;;;;;;-1.06;68.18;97261.25;110207;1242;59675;-72
2023/01/30 10:28:36;;;;;;;17.20;9.50;;;;;;;-0.92;68.42;97254.70;110169;1242;70457;-72
2023/01/30 10:31:14;;;;;;;17.10;10.30;;;;;;;-0.82;67.98;97254.22;110221;1242;69696;-72
2023/01/30 10:33:57;;;;;;;15.60;9.70;;;;;;;-0.75;67.63;97252.14;110203;1244;69700;-72
2023/01/30 10:36:40;;;;;;;16.10;9.20;;;;;;;-0.77;67.39;97248.77;110281;1242;59818;-73
2023/01/30 10:39:48;;;;;;;16.40;9.40;;;;;;;-0.72;67.54;97244.34;110389;1242;60156;-73
2023/01/30 10:42:31;;;;;;;15.70;8.90;;;;;;;-0.75;67.14;97245.27;110249;1243;71994;-73
2023/01/30 10:45:10;;;;;;;16.60;9.60;;;;;;;-0.72;67.75;97242.63;110367;1242;68267;-73
2023/01/30 10:47:58;;;;;;;16.00;10.80;;;;;;;-0.62;67.96;97238.88;110312;1243;68103;-73
2023/01/30 10:50:43;;;;;;;19.30;10.60;;;;;;;-0.56;68.12;97232.36;109833;1242;503658;-73
2023/01/30 10:53:59;;;;;;;17.00;9.70;;;;;;;-0.52;67.56;97229.85;110336;1242;59637;-72
2023/01/30 10:57:18;;;;;;;17.80;10.20;;;;;;;-0.63;66.88;97224.54;110051;1240;71216;-72
2023/01/30 11:00:04;;;;;;;13.40;8.70;;;;;;;-0.81;67.10;97223.91;109402;1251;69291;-71
2023/01/30 11:02:46;;;;;;;16.90;9.40;;;;;;;-0.88;67.43;97222.76;110182;1242;69315;-72
2023/01/30 11:05:23;;;;;;;19.70;9.60;;;;;;;-0.96;67.61;97218.38;110220;1242;59743;-72
2023/01/30 11:07:52;;;;;;;15.30;8.70;;;;;;;-1.02;67.55;97213.76;110216;1240;59656;-72
2023/01/30 11:10:25;;;;;;;13.50;9.30;;;;;;;-0.94;68.59;97210.45;110194;1241;70696;-72
2023/01/30 11:13:13;;;;;;;17.90;10.90;;;;;;;-0.92;67.96;97209.71;110187;1241;69297;-71
2023/01/30 11:15:45;;;;;;;16.50;10.40;;;;;;;-1.00;67.99;97204.12;110193;1242;69701;-71
2023/01/30 11:18:16;;;;;;;17.60;10.50;;;;;;;-1.04;68.43;97206.27;110151;1244;59818;-72
2023/01/30 11:21:09;;;;;;;19.20;10.00;;;;;;;-1.12;67.32;97200.19;110162;1249;59637;-72
2023/01/30 11:23:42;;;;;;;18.00;10.00;;;;;;;-1.24;67.14;97196.81;110228;1242;71806;-72
2023/01/30 11:26:18;;;;;;;15.50;9.00;;;;;;;-1.22;67.90;97194.69;110248;1242;69188;-71
2023/01/30 11:28:47;;;;;;;14.60;8.80;;;;;;;-1.19;68.56;97183.15;110236;1242;70257;-72
2023/01/30 11:31:24;;;;;;;17.00;9.70;;;;;;;-1.16;68.05;97177.07;110248;1243;59687;-72
2023/01/30 11:34:17;;;;;;;14.50;8.40;;;;;;;-1.18;67.10;97169.77;110283;1242;59676;-71
2023/01/30 11:36:46;;;;;;;17.10;10.40;;;;;;;-1.12;68.43;97161.04;110278;1241;71648;-70
2023/01/30 11:39:17;;;;;;;16.90;9.80;;;;;;;-1.04;69.10;97160.11;110216;1240;69076;-70
2023/01/30 11:42:00;;;;;;;17.00;9.80;;;;;;;-1.05;69.03;97147.46;110246;1245;68356;-70
2023/01/30 11:44:34;;;;;;;18.70;10.70;;;;;;;-1.04;69.19;97139.59;110290;1242;59766;-72
2023/01/30 11:47:19;;;;;;;16.80;10.00;;;;;;;-1.07;69.11;97136.76;110139;1244;59753;-72
2023/01/30 11:49:53;;;;;;;16.70;8.90;;;;;;;-1.05;69.26;97127.64;110239;1242;71967;-72
2023/01/30 11:52:44;;;;;;;16.50;9.90;;;;;;;-1.06;69.37;97120.66;110172;1249;70202;-72
2023/01/30 11:55:16;;;;;;;20.00;10.90;;;;;;;-1.10;69.41;97111.70;110234;1242;69175;-72
2023/01/30 11:57:57;;;;;;;17.30;10.30;;;;;;;-1.12;69.87;97104.42;110243;1242;59817;-72